sensor_id;sensor_type;location;lat;lon;timestamp;P1;durP1;ratioP1;P2;durP2;ratioP2
43620;SDS011;29213;50.770;7.298;2023-07-20T00:01:05;4.78;;;2.17;;
43620;SDS011;29213;50.770;7.298;2023-07-20T00:03:31;4.15;;;2.00;;
43620;SDS011;29213;50.770;7.298;2023-07-20T00:05:56;5.78;;;2.38;;
43620;SDS011;29213;50.770;7.298;2023-07-20T00:08:21;3.92;;;2.17;;
43620;SDS011;29213;50.770;7.298;2023-07-20T00:10:47;4.10;;;2.03;;
43620;SDS011;29213;50.770;7.298;2023-07-20T00:13:12;3.67;;;1.90;;
43620;SDS011;29213;50.770;7.298;2023-07-20T00:15:38;6.07;;;2.20;;
43620;SDS011;29213;50.770;7.298;2023-07-20T00:18:04;5.72;;;2.10;;
43620;SDS011;29213;50.770;7.298;2023-07-20T00:20:30;4.57;;;2.30;;
43620;SDS011;29213;50.770;7.298;2023-07-20T00:22:56;5.85;;;2.08;;
43620;SDS011;29213;50.770;7.298;2023-07-20T00:25:23;4.35;;;2.30;;
43620;SDS011;29213;50.770;7.298;2023-07-20T00:27:49;4.22;;;2.05;;
43620;SDS011;29213;50.770;7.298;2023-07-20T00:30:14;3.70;;;2.10;;
43620;SDS011;29213;50.770;7.298;2023-07-20T00:32:40;4.25;;;2.10;;
43620;SDS011;29213;50.770;7.298;2023-07-20T00:35:05;3.80;;;1.88;;
43620;SDS011;29213;50.770;7.298;2023-07-20T00:37:31;5.55;;;2.25;;
43620;SDS011;29213;50.770;7.298;2023-07-20T00:39:56;4.75;;;2.08;;
43620;SDS011;29213;50.770;7.298;2023-07-20T00:42:22;4.18;;;2.28;;
43620;SDS011;29213;50.770;7.298;2023-07-20T00:44:47;4.68;;;2.08;;
43620;SDS011;29213;50.770;7.298;2023-07-20T00:47:12;5.15;;;2.30;;
43620;SDS011;29213;50.770;7.298;2023-07-20T00:49:38;3.90;;;1.90;;
43620;SDS011;29213;50.770;7.298;2023-07-20T00:52:05;4.07;;;2.17;;
43620;SDS011;29213;50.770;7.298;2023-07-20T00:54:32;4.35;;;2.13;;
43620;SDS011;29213;50.770;7.298;2023-07-20T00:56:58;4.93;;;2.15;;
43620;SDS011;29213;50.770;7.298;2023-07-20T00:59:24;4.47;;;2.30;;
43620;SDS011;29213;50.770;7.298;2023-07-20T01:01:49;5.45;;;2.50;;
43620;SDS011;29213;50.770;7.298;2023-07-20T01:04:15;4.57;;;2.30;;
43620;SDS011;29213;50.770;7.298;2023-07-20T01:09:39;5.60;;;2.28;;
43620;SDS011;29213;50.770;7.298;2023-07-20T01:12:18;3.83;;;2.33;;
43620;SDS011;29213;50.770;7.298;2023-07-20T01:14:51;5.15;;;2.25;;
43620;SDS011;29213;50.770;7.298;2023-07-20T01:17:16;6.38;;;2.40;;
43620;SDS011;29213;50.770;7.298;2023-07-20T01:19:42;4.38;;;2.15;;
43620;SDS011;29213;50.770;7.298;2023-07-20T01:33:02;4.30;;;2.22;;
43620;SDS011;29213;50.770;7.298;2023-07-20T01:35:29;4.00;;;2.13;;
43620;SDS011;29213;50.770;7.298;2023-07-20T01:37:55;4.65;;;2.03;;
43620;SDS011;29213;50.770;7.298;2023-07-20T01:40:23;4.72;;;2.10;;
43620;SDS011;29213;50.770;7.298;2023-07-20T01:42:50;4.65;;;2.17;;
43620;SDS011;29213;50.770;7.298;2023-07-20T01:45:17;4.82;;;2.30;;
43620;SDS011;29213;50.770;7.298;2023-07-20T01:47:42;4.93;;;2.40;;
43620;SDS011;29213;50.770;7.298;2023-07-20T01:50:08;5.25;;;2.20;;
43620;SDS011;29213;50.770;7.298;2023-07-20T01:52:34;3.85;;;2.00;;
43620;SDS011;29213;50.770;7.298;2023-07-20T01:55:00;5.35;;;2.25;;
43620;SDS011;29213;50.770;7.298;2023-07-20T01:57:25;5.18;;;2.35;;
43620;SDS011;29213;50.770;7.298;2023-07-20T01:59:50;6.93;;;2.40;;
43620;SDS011;29213;50.770;7.298;2023-07-20T02:02:16;5.15;;;2.10;;
43620;SDS011;29213;50.770;7.298;2023-07-20T02:04:42;4.78;;;2.22;;
43620;SDS011;29213;50.770;7.298;2023-07-20T02:07:07;3.58;;;1.95;;
43620;SDS011;29213;50.770;7.298;2023-07-20T02:09:32;3.97;;;1.98;;
43620;SDS011;29213;50.770;7.298;2023-07-20T02:11:58;4.07;;;2.28;;
43620;SDS011;29213;50.770;7.298;2023-07-20T02:14:23;4.57;;;2.17;;
43620;SDS011;29213;50.770;7.298;2023-07-20T02:16:49;4.85;;;2.30;;
43620;SDS011;29213;50.770;7.298;2023-07-20T02:19:24;3.97;;;2.25;;
43620;SDS011;29213;50.770;7.298;2023-07-20T02:21:50;3.47;;;2.00;;
43620;SDS011;29213;50.770;7.298;2023-07-20T02:24:15;4.03;;;2.00;;
43620;SDS011;29213;50.770;7.298;2023-07-20T02:26:41;4.38;;;2.10;;
43620;SDS011;29213;50.770;7.298;2023-07-20T02:29:06;4.43;;;2.03;;
43620;SDS011;29213;50.770;7.298;2023-07-20T02:31:33;4.88;;;1.90;;
43620;SDS011;29213;50.770;7.298;2023-07-20T02:33:58;4.45;;;2.15;;
43620;SDS011;29213;50.770;7.298;2023-07-20T02:36:24;5.05;;;2.45;;
43620;SDS011;29213;50.770;7.298;2023-07-20T02:38:49;4.63;;;2.10;;
43620;SDS011;29213;50.770;7.298;2023-07-20T02:41:14;4.65;;;2.20;;
43620;SDS011;29213;50.770;7.298;2023-07-20T02:43:40;6.32;;;2.13;;
43620;SDS011;29213;50.770;7.298;2023-07-20T02:46:05;3.58;;;1.98;;
43620;SDS011;29213;50.770;7.298;2023-07-20T02:48:30;4.70;;;2.13;;
43620;SDS011;29213;50.770;7.298;2023-07-20T02:50:56;3.33;;;1.90;;
43620;SDS011;29213;50.770;7.298;2023-07-20T02:53:21;4.05;;;2.00;;
43620;SDS011;29213;50.770;7.298;2023-07-20T02:55:46;3.78;;;1.92;;
43620;SDS011;29213;50.770;7.298;2023-07-20T02:58:12;5.20;;;2.05;;
43620;SDS011;29213;50.770;7.298;2023-07-20T03:00:38;4.97;;;2.38;;
43620;SDS011;29213;50.770;7.298;2023-07-20T03:03:03;4.57;;;2.30;;
43620;SDS011;29213;50.770;7.298;2023-07-20T03:05:28;4.65;;;2.05;;
43620;SDS011;29213;50.770;7.298;2023-07-20T03:07:55;5.30;;;2.67;;
43620;SDS011;29213;50.770;7.298;2023-07-20T03:10:21;4.15;;;2.20;;
43620;SDS011;29213;50.770;7.298;2023-07-20T03:12:46;4.60;;;2.22;;
43620;SDS011;29213;50.770;7.298;2023-07-20T03:15:11;3.83;;;2.10;;
43620;SDS011;29213;50.770;7.298;2023-07-20T03:17:37;4.57;;;2.38;;
43620;SDS011;29213;50.770;7.298;2023-07-20T03:20:02;3.67;;;2.22;;
43620;SDS011;29213;50.770;7.298;2023-07-20T03:22:28;4.50;;;2.05;;
43620;SDS011;29213;50.770;7.298;2023-07-20T03:24:54;4.18;;;1.98;;
43620;SDS011;29213;50.770;7.298;2023-07-20T03:27:20;4.47;;;2.10;;
43620;SDS011;29213;50.770;7.298;2023-07-20T03:29:45;4.40;;;2.30;;
43620;SDS011;29213;50.770;7.298;2023-07-20T03:32:10;4.47;;;2.20;;
43620;SDS011;29213;50.770;7.298;2023-07-20T03:34:36;4.38;;;1.95;;
43620;SDS011;29213;50.770;7.298;2023-07-20T03:37:02;4.53;;;2.30;;
43620;SDS011;29213;50.770;7.298;2023-07-20T03:39:29;4.70;;;2.05;;
43620;SDS011;29213;50.770;7.298;2023-07-20T03:41:55;6.20;;;1.95;;
43620;SDS011;29213;50.770;7.298;2023-07-20T03:44:20;3.78;;;1.85;;
43620;SDS011;29213;50.770;7.298;2023-07-20T03:46:46;4.13;;;2.20;;
43620;SDS011;29213;50.770;7.298;2023-07-20T03:49:11;5.40;;;1.90;;
43620;SDS011;29213;50.770;7.298;2023-07-20T03:51:36;4.05;;;2.00;;
43620;SDS011;29213;50.770;7.298;2023-07-20T03:54:02;4.50;;;2.10;;
43620;SDS011;29213;50.770;7.298;2023-07-20T03:56:27;4.70;;;2.22;;
43620;SDS011;29213;50.770;7.298;2023-07-20T03:58:53;4.60;;;2.13;;
43620;SDS011;29213;50.770;7.298;2023-07-20T04:01:18;4.15;;;2.10;;
43620;SDS011;29213;50.770;7.298;2023-07-20T04:03:43;4.60;;;2.17;;
43620;SDS011;29213;50.770;7.298;2023-07-20T04:06:10;4.20;;;2.30;;
43620;SDS011;29213;50.770;7.298;2023-07-20T04:08:36;5.55;;;1.90;;
43620;SDS011;29213;50.770;7.298;2023-07-20T04:11:02;4.50;;;2.00;;
43620;SDS011;29213;50.770;7.298;2023-07-20T04:13:27;4.93;;;2.40;;
43620;SDS011;29213;50.770;7.298;2023-07-20T04:15:53;5.68;;;2.33;;
43620;SDS011;29213;50.770;7.298;2023-07-20T04:18:20;4.68;;;2.35;;
43620;SDS011;29213;50.770;7.298;2023-07-20T04:20:45;3.70;;;2.05;;
43620;SDS011;29213;50.770;7.298;2023-07-20T04:23:10;4.82;;;2.00;;
43620;SDS011;29213;50.770;7.298;2023-07-20T04:25:36;6.13;;;2.10;;
43620;SDS011;29213;50.770;7.298;2023-07-20T04:28:05;4.07;;;2.25;;
43620;SDS011;29213;50.770;7.298;2023-07-20T04:30:34;5.97;;;2.10;;
43620;SDS011;29213;50.770;7.298;2023-07-20T04:33:03;4.93;;;2.28;;
43620;SDS011;29213;50.770;7.298;2023-07-20T04:35:45;5.03;;;2.15;;
43620;SDS011;29213;50.770;7.298;2023-07-20T04:38:14;4.68;;;1.90;;
43620;SDS011;29213;50.770;7.298;2023-07-20T04:40:43;4.30;;;1.90;;
43620;SDS011;29213;50.770;7.298;2023-07-20T04:43:10;4.00;;;1.98;;
43620;SDS011;29213;50.770;7.298;2023-07-20T04:45:35;3.90;;;2.00;;
43620;SDS011;29213;50.770;7.298;2023-07-20T04:48:00;3.83;;;1.88;;
43620;SDS011;29213;50.770;7.298;2023-07-20T04:50:26;4.50;;;2.28;;
43620;SDS011;29213;50.770;7.298;2023-07-20T04:52:51;4.63;;;2.08;;
43620;SDS011;29213;50.770;7.298;2023-07-20T04:55:18;3.55;;;2.20;;
43620;SDS011;29213;50.770;7.298;2023-07-20T04:57:43;6.07;;;2.28;;
43620;SDS011;29213;50.770;7.298;2023-07-20T05:00:09;5.28;;;2.08;;
43620;SDS011;29213;50.770;7.298;2023-07-20T05:02:40;4.20;;;2.13;;
43620;SDS011;29213;50.770;7.298;2023-07-20T05:05:05;4.53;;;2.22;;
43620;SDS011;29213;50.770;7.298;2023-07-20T05:07:31;4.90;;;2.28;;
43620;SDS011;29213;50.770;7.298;2023-07-20T05:09:57;4.72;;;2.20;;
43620;SDS011;29213;50.770;7.298;2023-07-20T05:12:23;4.55;;;2.15;;
43620;SDS011;29213;50.770;7.298;2023-07-20T05:14:48;5.57;;;2.38;;
43620;SDS011;29213;50.770;7.298;2023-07-20T05:17:13;7.10;;;2.45;;
43620;SDS011;29213;50.770;7.298;2023-07-20T05:19:39;5.03;;;2.42;;
43620;SDS011;29213;50.770;7.298;2023-07-20T05:22:04;7.18;;;2.30;;
43620;SDS011;29213;50.770;7.298;2023-07-20T05:24:30;5.18;;;2.70;;
43620;SDS011;29213;50.770;7.298;2023-07-20T05:26:56;4.18;;;2.30;;
43620;SDS011;29213;50.770;7.298;2023-07-20T05:29:22;3.17;;;1.80;;
43620;SDS011;29213;50.770;7.298;2023-07-20T05:31:48;4.95;;;2.80;;
43620;SDS011;29213;50.770;7.298;2023-07-20T05:34:13;5.47;;;2.50;;
43620;SDS011;29213;50.770;7.298;2023-07-20T05:36:38;6.45;;;2.80;;
43620;SDS011;29213;50.770;7.298;2023-07-20T05:39:04;6.05;;;2.50;;
43620;SDS011;29213;50.770;7.298;2023-07-20T05:41:29;4.25;;;2.30;;
43620;SDS011;29213;50.770;7.298;2023-07-20T05:43:54;6.38;;;2.58;;
43620;SDS011;29213;50.770;7.298;2023-07-20T05:46:20;4.90;;;2.47;;
43620;SDS011;29213;50.770;7.298;2023-07-20T05:48:45;6.15;;;3.00;;
43620;SDS011;29213;50.770;7.298;2023-07-20T05:51:11;4.65;;;2.50;;
43620;SDS011;29213;50.770;7.298;2023-07-20T05:53:36;6.47;;;3.28;;
43620;SDS011;29213;50.770;7.298;2023-07-20T05:56:03;6.07;;;2.75;;
43620;SDS011;29213;50.770;7.298;2023-07-20T05:58:28;5.90;;;2.88;;
43620;SDS011;29213;50.770;7.298;2023-07-20T06:00:54;6.22;;;2.95;;
43620;SDS011;29213;50.770;7.298;2023-07-20T06:03:19;6.28;;;3.10;;
43620;SDS011;29213;50.770;7.298;2023-07-20T06:05:46;5.35;;;3.08;;
43620;SDS011;29213;50.770;7.298;2023-07-20T06:08:12;7.25;;;3.58;;
43620;SDS011;29213;50.770;7.298;2023-07-20T06:10:37;6.68;;;3.60;;
43620;SDS011;29213;50.770;7.298;2023-07-20T06:13:03;5.40;;;3.05;;
43620;SDS011;29213;50.770;7.298;2023-07-20T06:15:30;5.88;;;3.20;;
43620;SDS011;29213;50.770;7.298;2023-07-20T06:17:58;6.35;;;3.17;;
43620;SDS011;29213;50.770;7.298;2023-07-20T06:20:24;8.07;;;3.58;;
43620;SDS011;29213;50.770;7.298;2023-07-20T06:22:49;9.23;;;3.25;;
43620;SDS011;29213;50.770;7.298;2023-07-20T06:25:15;7.95;;;3.40;;
43620;SDS011;29213;50.770;7.298;2023-07-20T06:27:41;5.88;;;3.00;;
43620;SDS011;29213;50.770;7.298;2023-07-20T06:30:07;7.93;;;3.13;;
43620;SDS011;29213;50.770;7.298;2023-07-20T06:32:33;5.35;;;3.22;;
43620;SDS011;29213;50.770;7.298;2023-07-20T06:34:58;9.05;;;4.32;;
43620;SDS011;29213;50.770;7.298;2023-07-20T06:37:24;5.63;;;3.40;;
43620;SDS011;29213;50.770;7.298;2023-07-20T06:39:49;6.40;;;3.47;;
43620;SDS011;29213;50.770;7.298;2023-07-20T06:42:14;4.68;;;2.88;;
43620;SDS011;29213;50.770;7.298;2023-07-20T06:44:40;5.40;;;2.97;;
43620;SDS011;29213;50.770;7.298;2023-07-20T06:47:05;6.07;;;3.10;;
43620;SDS011;29213;50.770;7.298;2023-07-20T06:49:30;7.40;;;3.33;;
43620;SDS011;29213;50.770;7.298;2023-07-20T06:51:56;6.57;;;3.50;;
43620;SDS011;29213;50.770;7.298;2023-07-20T06:54:21;4.78;;;3.10;;
43620;SDS011;29213;50.770;7.298;2023-07-20T06:56:47;6.90;;;3.20;;
43620;SDS011;29213;50.770;7.298;2023-07-20T06:59:12;6.25;;;4.10;;
43620;SDS011;29213;50.770;7.298;2023-07-20T07:01:38;8.95;;;4.50;;
43620;SDS011;29213;50.770;7.298;2023-07-20T07:04:04;6.88;;;3.70;;
43620;SDS011;29213;50.770;7.298;2023-07-20T07:06:30;6.43;;;4.10;;
43620;SDS011;29213;50.770;7.298;2023-07-20T07:08:56;7.22;;;3.78;;
43620;SDS011;29213;50.770;7.298;2023-07-20T07:11:22;6.03;;;3.45;;
43620;SDS011;29213;50.770;7.298;2023-07-20T07:13:48;6.07;;;3.25;;
43620;SDS011;29213;50.770;7.298;2023-07-20T07:16:16;5.88;;;3.38;;
43620;SDS011;29213;50.770;7.298;2023-07-20T07:18:47;5.90;;;3.17;;
43620;SDS011;29213;50.770;7.298;2023-07-20T07:21:13;7.13;;;3.92;;
43620;SDS011;29213;50.770;7.298;2023-07-20T07:23:39;5.38;;;3.50;;
43620;SDS011;29213;50.770;7.298;2023-07-20T07:26:04;6.00;;;3.45;;
43620;SDS011;29213;50.770;7.298;2023-07-20T07:28:30;5.57;;;3.28;;
43620;SDS011;29213;50.770;7.298;2023-07-20T07:30:57;5.38;;;3.70;;
43620;SDS011;29213;50.770;7.298;2023-07-20T07:33:22;5.70;;;4.22;;
43620;SDS011;29213;50.770;7.298;2023-07-20T07:35:48;7.10;;;4.30;;
43620;SDS011;29213;50.770;7.298;2023-07-20T07:38:15;6.88;;;4.13;;
43620;SDS011;29213;50.770;7.298;2023-07-20T07:40:40;7.93;;;4.93;;
43620;SDS011;29213;50.770;7.298;2023-07-20T07:43:05;5.93;;;4.03;;
43620;SDS011;29213;50.770;7.298;2023-07-20T07:45:34;6.00;;;3.85;;
43620;SDS011;29213;50.770;7.298;2023-07-20T07:48:01;8.90;;;4.18;;
43620;SDS011;29213;50.770;7.298;2023-07-20T07:50:27;6.97;;;3.95;;
43620;SDS011;29213;50.770;7.298;2023-07-20T07:52:53;5.90;;;3.60;;
43620;SDS011;29213;50.770;7.298;2023-07-20T07:55:19;5.50;;;3.40;;
43620;SDS011;29213;50.770;7.298;2023-07-20T07:57:44;6.90;;;4.28;;
43620;SDS011;29213;50.770;7.298;2023-07-20T08:00:10;5.75;;;4.10;;
43620;SDS011;29213;50.770;7.298;2023-07-20T08:05:05;8.98;;;4.57;;
43620;SDS011;29213;50.770;7.298;2023-07-20T08:07:30;6.68;;;3.92;;
43620;SDS011;29213;50.770;7.298;2023-07-20T08:09:56;8.23;;;4.50;;
43620;SDS011;29213;50.770;7.298;2023-07-20T08:12:21;9.25;;;5.30;;
43620;SDS011;29213;50.770;7.298;2023-07-20T08:14:47;7.50;;;5.00;;
43620;SDS011;29213;50.770;7.298;2023-07-20T08:17:13;5.97;;;4.40;;
43620;SDS011;29213;50.770;7.298;2023-07-20T08:19:39;6.07;;;4.60;;
43620;SDS011;29213;50.770;7.298;2023-07-20T08:22:06;5.32;;;3.30;;
43620;SDS011;29213;50.770;7.298;2023-07-20T08:24:32;6.75;;;3.90;;
43620;SDS011;29213;50.770;7.298;2023-07-20T08:26:58;5.88;;;3.58;;
43620;SDS011;29213;50.770;7.298;2023-07-20T08:29:24;5.95;;;3.85;;
43620;SDS011;29213;50.770;7.298;2023-07-20T08:31:49;6.07;;;4.13;;
43620;SDS011;29213;50.770;7.298;2023-07-20T08:34:15;5.63;;;3.78;;
43620;SDS011;29213;50.770;7.298;2023-07-20T08:36:40;4.65;;;3.50;;
43620;SDS011;29213;50.770;7.298;2023-07-20T08:39:06;5.72;;;3.78;;
43620;SDS011;29213;50.770;7.298;2023-07-20T08:41:33;6.53;;;3.90;;
43620;SDS011;29213;50.770;7.298;2023-07-20T08:44:00;4.88;;;3.20;;
43620;SDS011;29213;50.770;7.298;2023-07-20T08:46:26;5.65;;;3.67;;
43620;SDS011;29213;50.770;7.298;2023-07-20T08:48:52;7.35;;;3.80;;
43620;SDS011;29213;50.770;7.298;2023-07-20T08:51:18;5.85;;;3.20;;
43620;SDS011;29213;50.770;7.298;2023-07-20T08:53:46;6.13;;;3.25;;
43620;SDS011;29213;50.770;7.298;2023-07-20T08:56:12;4.70;;;3.33;;
43620;SDS011;29213;50.770;7.298;2023-07-20T08:58:41;5.10;;;3.30;;
43620;SDS011;29213;50.770;7.298;2023-07-20T09:01:08;6.32;;;4.32;;
43620;SDS011;29213;50.770;7.298;2023-07-20T09:03:34;5.07;;;4.40;;
43620;SDS011;29213;50.770;7.298;2023-07-20T09:05:59;7.55;;;4.45;;
43620;SDS011;29213;50.770;7.298;2023-07-20T09:08:25;7.10;;;4.22;;
43620;SDS011;29213;50.770;7.298;2023-07-20T09:10:50;6.50;;;4.60;;
43620;SDS011;29213;50.770;7.298;2023-07-20T09:13:16;8.75;;;5.13;;
43620;SDS011;29213;50.770;7.298;2023-07-20T09:15:48;6.75;;;4.20;;
43620;SDS011;29213;50.770;7.298;2023-07-20T09:18:29;4.82;;;3.90;;
43620;SDS011;29213;50.770;7.298;2023-07-20T09:20:58;5.28;;;3.22;;
43620;SDS011;29213;50.770;7.298;2023-07-20T09:23:30;4.75;;;3.10;;
43620;SDS011;29213;50.770;7.298;2023-07-20T09:25:59;5.95;;;3.10;;
43620;SDS011;29213;50.770;7.298;2023-07-20T09:28:24;4.20;;;2.80;;
43620;SDS011;29213;50.770;7.298;2023-07-20T09:30:50;4.43;;;2.75;;
43620;SDS011;29213;50.770;7.298;2023-07-20T09:33:19;3.15;;;2.30;;
43620;SDS011;29213;50.770;7.298;2023-07-20T09:35:46;4.80;;;2.60;;
43620;SDS011;29213;50.770;7.298;2023-07-20T09:38:12;3.50;;;2.50;;
43620;SDS011;29213;50.770;7.298;2023-07-20T09:40:40;4.28;;;2.80;;
43620;SDS011;29213;50.770;7.298;2023-07-20T09:43:09;4.28;;;2.40;;
43620;SDS011;29213;50.770;7.298;2023-07-20T09:45:35;3.35;;;2.05;;
43620;SDS011;29213;50.770;7.298;2023-07-20T09:48:10;4.22;;;2.22;;
43620;SDS011;29213;50.770;7.298;2023-07-20T09:50:43;4.43;;;2.47;;
43620;SDS011;29213;50.770;7.298;2023-07-20T09:53:14;4.40;;;2.30;;
43620;SDS011;29213;50.770;7.298;2023-07-20T09:55:43;3.53;;;2.10;;
43620;SDS011;29213;50.770;7.298;2023-07-20T09:58:09;4.47;;;2.40;;
43620;SDS011;29213;50.770;7.298;2023-07-20T10:00:38;3.53;;;2.00;;
43620;SDS011;29213;50.770;7.298;2023-07-20T10:03:05;3.67;;;2.17;;
43620;SDS011;29213;50.770;7.298;2023-07-20T10:05:33;5.30;;;2.03;;
43620;SDS011;29213;50.770;7.298;2023-07-20T10:08:00;3.33;;;2.10;;
43620;SDS011;29213;50.770;7.298;2023-07-20T10:10:27;3.72;;;1.90;;
43620;SDS011;29213;50.770;7.298;2023-07-20T10:12:54;3.72;;;1.85;;
43620;SDS011;29213;50.770;7.298;2023-07-20T10:15:27;3.00;;;1.50;;
43620;SDS011;29213;50.770;7.298;2023-07-20T10:17:57;3.00;;;1.80;;
43620;SDS011;29213;50.770;7.298;2023-07-20T10:20:28;3.95;;;1.83;;
43620;SDS011;29213;50.770;7.298;2023-07-20T10:22:55;3.22;;;1.77;;
43620;SDS011;29213;50.770;7.298;2023-07-20T10:25:22;2.80;;;1.50;;
43620;SDS011;29213;50.770;7.298;2023-07-20T10:27:47;3.60;;;1.77;;
43620;SDS011;29213;50.770;7.298;2023-07-20T10:30:13;4.80;;;2.20;;
43620;SDS011;29213;50.770;7.298;2023-07-20T10:32:39;4.80;;;1.95;;
43620;SDS011;29213;50.770;7.298;2023-07-20T10:35:16;3.20;;;1.88;;
43620;SDS011;29213;50.770;7.298;2023-07-20T10:40:28;3.42;;;1.88;;
43620;SDS011;29213;50.770;7.298;2023-07-20T10:42:58;3.63;;;1.73;;
43620;SDS011;29213;50.770;7.298;2023-07-20T10:45:36;4.80;;;1.70;;
43620;SDS011;29213;50.770;7.298;2023-07-20T10:48:06;3.33;;;1.58;;
43620;SDS011;29213;50.770;7.298;2023-07-20T10:50:38;2.40;;;1.20;;
43620;SDS011;29213;50.770;7.298;2023-07-20T10:53:09;2.67;;;1.52;;
43620;SDS011;29213;50.770;7.298;2023-07-20T10:55:39;3.05;;;1.50;;
43620;SDS011;29213;50.770;7.298;2023-07-20T10:58:09;4.25;;;1.50;;
43620;SDS011;29213;50.770;7.298;2023-07-20T11:00:36;3.20;;;1.40;;
43620;SDS011;29213;50.770;7.298;2023-07-20T11:03:02;2.55;;;1.20;;
43620;SDS011;29213;50.770;7.298;2023-07-20T11:05:31;2.65;;;1.17;;
43620;SDS011;29213;50.770;7.298;2023-07-20T11:07:58;3.13;;;1.42;;
43620;SDS011;29213;50.770;7.298;2023-07-20T11:10:24;2.65;;;1.40;;
43620;SDS011;29213;50.770;7.298;2023-07-20T11:15:48;3.60;;;1.60;;
43620;SDS011;29213;50.770;7.298;2023-07-20T11:18:27;3.28;;;1.45;;
43620;SDS011;29213;50.770;7.298;2023-07-20T11:20:53;3.30;;;1.50;;
43620;SDS011;29213;50.770;7.298;2023-07-20T11:23:20;3.35;;;1.50;;
43620;SDS011;29213;50.770;7.298;2023-07-20T11:25:46;4.40;;;1.92;;
43620;SDS011;29213;50.770;7.298;2023-07-20T11:28:12;6.05;;;2.45;;
43620;SDS011;29213;50.770;7.298;2023-07-20T11:30:37;3.90;;;1.70;;
43620;SDS011;29213;50.770;7.298;2023-07-20T11:33:04;4.95;;;2.20;;
43620;SDS011;29213;50.770;7.298;2023-07-20T11:35:30;3.08;;;1.40;;
43620;SDS011;29213;50.770;7.298;2023-07-20T11:37:56;2.85;;;1.58;;
43620;SDS011;29213;50.770;7.298;2023-07-20T11:40:22;3.67;;;1.50;;
43620;SDS011;29213;50.770;7.298;2023-07-20T11:42:47;2.70;;;1.40;;
43620;SDS011;29213;50.770;7.298;2023-07-20T11:45:15;3.30;;;1.58;;
43620;SDS011;29213;50.770;7.298;2023-07-20T11:47:43;2.88;;;1.58;;
43620;SDS011;29213;50.770;7.298;2023-07-20T11:50:08;3.08;;;1.38;;
43620;SDS011;29213;50.770;7.298;2023-07-20T11:52:34;2.88;;;1.42;;
43620;SDS011;29213;50.770;7.298;2023-07-20T11:55:00;2.97;;;1.55;;
43620;SDS011;29213;50.770;7.298;2023-07-20T11:57:26;2.60;;;1.40;;
43620;SDS011;29213;50.770;7.298;2023-07-20T11:59:55;2.60;;;1.30;;
43620;SDS011;29213;50.770;7.298;2023-07-20T12:02:35;3.05;;;1.63;;
43620;SDS011;29213;50.770;7.298;2023-07-20T12:05:01;3.25;;;1.52;;
43620;SDS011;29213;50.770;7.298;2023-07-20T12:07:28;3.38;;;1.35;;
43620;SDS011;29213;50.770;7.298;2023-07-20T12:12:50;2.90;;;1.50;;
43620;SDS011;29213;50.770;7.298;2023-07-20T12:15:16;3.63;;;1.50;;
43620;SDS011;29213;50.770;7.298;2023-07-20T12:17:45;3.97;;;1.60;;
43620;SDS011;29213;50.770;7.298;2023-07-20T12:20:11;2.22;;;1.20;;
43620;SDS011;29213;50.770;7.298;2023-07-20T12:22:40;2.00;;;1.05;;
43620;SDS011;29213;50.770;7.298;2023-07-20T12:25:08;3.25;;;1.40;;
43620;SDS011;29213;50.770;7.298;2023-07-20T12:27:37;2.88;;;1.30;;
43620;SDS011;29213;50.770;7.298;2023-07-20T12:30:03;3.00;;;1.33;;
43620;SDS011;29213;50.770;7.298;2023-07-20T12:32:32;2.60;;;1.20;;
43620;SDS011;29213;50.770;7.298;2023-07-20T12:34:58;2.25;;;1.20;;
43620;SDS011;29213;50.770;7.298;2023-07-20T12:37:25;2.20;;;1.20;;
43620;SDS011;29213;50.770;7.298;2023-07-20T12:39:51;2.75;;;1.27;;
43620;SDS011;29213;50.770;7.298;2023-07-20T12:42:17;2.70;;;1.20;;
43620;SDS011;29213;50.770;7.298;2023-07-20T12:44:42;2.55;;;1.30;;
43620;SDS011;29213;50.770;7.298;2023-07-20T12:47:08;2.22;;;1.02;;
43620;SDS011;29213;50.770;7.298;2023-07-20T12:49:33;2.90;;;1.20;;
43620;SDS011;29213;50.770;7.298;2023-07-20T12:51:59;2.78;;;1.30;;
43620;SDS011;29213;50.770;7.298;2023-07-20T12:54:24;5.45;;;1.40;;
43620;SDS011;29213;50.770;7.298;2023-07-20T12:56:50;3.05;;;1.30;;
43620;SDS011;29213;50.770;7.298;2023-07-20T12:59:15;2.40;;;1.20;;
43620;SDS011;29213;50.770;7.298;2023-07-20T13:01:40;2.83;;;1.00;;
43620;SDS011;29213;50.770;7.298;2023-07-20T13:04:06;2.70;;;1.30;;
43620;SDS011;29213;50.770;7.298;2023-07-20T13:06:34;3.17;;;1.20;;
43620;SDS011;29213;50.770;7.298;2023-07-20T13:09:00;2.83;;;1.30;;
43620;SDS011;29213;50.770;7.298;2023-07-20T13:11:25;2.38;;;1.10;;
43620;SDS011;29213;50.770;7.298;2023-07-20T13:13:51;2.67;;;1.20;;
43620;SDS011;29213;50.770;7.298;2023-07-20T13:16:17;2.00;;;1.05;;
43620;SDS011;29213;50.770;7.298;2023-07-20T13:18:42;2.95;;;1.25;;
43620;SDS011;29213;50.770;7.298;2023-07-20T13:21:07;3.28;;;1.40;;
43620;SDS011;29213;50.770;7.298;2023-07-20T13:23:38;1.65;;;1.00;;
43620;SDS011;29213;50.770;7.298;2023-07-20T13:26:04;3.20;;;1.13;;
43620;SDS011;29213;50.770;7.298;2023-07-20T13:28:30;3.05;;;1.30;;
43620;SDS011;29213;50.770;7.298;2023-07-20T13:30:55;2.28;;;1.15;;
43620;SDS011;29213;50.770;7.298;2023-07-20T13:33:20;2.60;;;1.20;;
43620;SDS011;29213;50.770;7.298;2023-07-20T13:35:46;2.15;;;1.00;;
43620;SDS011;29213;50.770;7.298;2023-07-20T13:38:12;2.33;;;1.05;;
43620;SDS011;29213;50.770;7.298;2023-07-20T13:40:37;4.43;;;1.10;;
43620;SDS011;29213;50.770;7.298;2023-07-20T13:43:03;2.15;;;0.90;;
43620;SDS011;29213;50.770;7.298;2023-07-20T13:45:28;2.10;;;1.10;;
43620;SDS011;29213;50.770;7.298;2023-07-20T13:47:54;2.42;;;1.00;;
43620;SDS011;29213;50.770;7.298;2023-07-20T13:50:19;2.40;;;1.10;;
43620;SDS011;29213;50.770;7.298;2023-07-20T13:52:45;2.30;;;0.95;;
43620;SDS011;29213;50.770;7.298;2023-07-20T13:55:10;3.35;;;1.08;;
43620;SDS011;29213;50.770;7.298;2023-07-20T13:57:36;4.75;;;1.38;;
43620;SDS011;29213;50.770;7.298;2023-07-20T14:00:02;3.30;;;1.30;;
43620;SDS011;29213;50.770;7.298;2023-07-20T14:02:29;2.95;;;1.10;;
43620;SDS011;29213;50.770;7.298;2023-07-20T14:04:54;2.08;;;1.10;;
43620;SDS011;29213;50.770;7.298;2023-07-20T14:07:21;2.00;;;0.90;;
43620;SDS011;29213;50.770;7.298;2023-07-20T14:09:46;2.75;;;1.10;;
43620;SDS011;29213;50.770;7.298;2023-07-20T14:12:12;2.00;;;0.90;;
43620;SDS011;29213;50.770;7.298;2023-07-20T14:14:39;2.65;;;1.08;;
43620;SDS011;29213;50.770;7.298;2023-07-20T14:17:06;2.25;;;1.10;;
43620;SDS011;29213;50.770;7.298;2023-07-20T14:19:31;2.20;;;1.02;;
43620;SDS011;29213;50.770;7.298;2023-07-20T14:21:57;2.35;;;1.10;;
43620;SDS011;29213;50.770;7.298;2023-07-20T14:24:24;2.60;;;0.80;;
43620;SDS011;29213;50.770;7.298;2023-07-20T14:26:52;2.20;;;0.90;;
43620;SDS011;29213;50.770;7.298;2023-07-20T14:29:19;2.47;;;0.95;;
43620;SDS011;29213;50.770;7.298;2023-07-20T14:31:45;5.53;;;1.05;;
43620;SDS011;29213;50.770;7.298;2023-07-20T14:34:15;2.88;;;1.17;;
43620;SDS011;29213;50.770;7.298;2023-07-20T14:36:41;3.25;;;1.00;;
43620;SDS011;29213;50.770;7.298;2023-07-20T14:39:07;1.67;;;0.80;;
43620;SDS011;29213;50.770;7.298;2023-07-20T14:41:32;2.45;;;1.25;;
43620;SDS011;29213;50.770;7.298;2023-07-20T14:43:58;2.50;;;1.17;;
43620;SDS011;29213;50.770;7.298;2023-07-20T14:46:23;2.85;;;0.88;;
43620;SDS011;29213;50.770;7.298;2023-07-20T14:48:48;1.80;;;0.90;;
43620;SDS011;29213;50.770;7.298;2023-07-20T14:51:14;1.83;;;0.90;;
43620;SDS011;29213;50.770;7.298;2023-07-20T14:53:39;1.80;;;0.90;;
43620;SDS011;29213;50.770;7.298;2023-07-20T14:56:04;1.50;;;0.90;;
43620;SDS011;29213;50.770;7.298;2023-07-20T14:58:31;2.40;;;1.00;;
43620;SDS011;29213;50.770;7.298;2023-07-20T15:00:56;3.78;;;1.00;;
43620;SDS011;29213;50.770;7.298;2023-07-20T15:03:22;2.60;;;1.08;;
43620;SDS011;29213;50.770;7.298;2023-07-20T15:05:47;2.72;;;1.27;;
43620;SDS011;29213;50.770;7.298;2023-07-20T15:08:13;1.90;;;0.90;;